createdAt,value
2023-05-31T00:00:34.045Z,37.12
2023-05-31T00:01:34.079Z,37.13
2023-05-31T00:02:34.229Z,37.12
2023-05-31T00:03:34.221Z,37.14
2023-05-31T00:04:34.172Z,37.12
2023-05-31T00:05:34.181Z,37.12
2023-05-31T00:06:34.249Z,37.12
2023-05-31T00:07:34.215Z,37.11
2023-05-31T00:08:34.262Z,37.12
2023-05-31T00:09:34.276Z,37.10
2023-05-31T00:10:34.307Z,37.10
2023-05-31T00:11:34.311Z,37.09
2023-05-31T00:12:34.347Z,37.13
2023-05-31T00:13:34.403Z,37.13
2023-05-31T00:14:34.402Z,37.12
2023-05-31T00:15:34.401Z,37.11
2023-05-31T00:17:49.861Z,37.13
2023-05-31T00:18:35.508Z,37.14
2023-05-31T00:19:34.438Z,37.14
2023-05-31T00:20:34.516Z,37.12
2023-05-31T00:21:34.432Z,37.13
2023-05-31T00:22:34.417Z,37.12
2023-05-31T00:23:34.413Z,37.13
2023-05-31T00:24:34.399Z,37.10
2023-05-31T00:25:34.372Z,37.11
2023-05-31T00:26:34.401Z,37.11
2023-05-31T00:27:34.362Z,37.11
2023-05-31T00:28:34.426Z,37.11
2023-05-31T00:29:34.323Z,37.11
2023-05-31T00:30:34.447Z,37.10
2023-05-31T00:31:34.413Z,37.10
2023-05-31T00:32:34.340Z,37.14
2023-05-31T00:33:34.339Z,37.11
2023-05-31T00:34:34.294Z,37.11
2023-05-31T00:35:34.356Z,37.10
2023-05-31T00:36:34.370Z,37.09
2023-05-31T00:37:34.389Z,37.08
2023-05-31T00:38:34.441Z,37.08
2023-05-31T00:39:34.440Z,37.11
2023-05-31T00:40:34.503Z,37.12
2023-05-31T00:41:34.565Z,37.10
2023-05-31T00:42:34.586Z,37.11
2023-05-31T00:43:34.632Z,37.11
2023-05-31T00:44:34.648Z,37.11
2023-05-31T00:45:34.702Z,37.11
2023-05-31T00:46:34.698Z,37.09
2023-05-31T00:47:34.728Z,37.09
2023-05-31T00:48:34.796Z,37.09
2023-05-31T00:49:34.761Z,37.06
2023-05-31T00:50:34.779Z,37.10
2023-05-31T00:51:34.809Z,37.11
2023-05-31T00:52:34.849Z,37.08
2023-05-31T00:53:34.968Z,37.09
2023-05-31T00:54:34.905Z,37.08
2023-05-31T00:55:34.953Z,37.10
2023-05-31T00:56:34.987Z,37.10
2023-05-31T00:57:34.973Z,37.08
2023-05-31T00:58:35.017Z,37.08
2023-05-31T00:59:35.106Z,37.07
2023-05-31T01:00:35.094Z,37.10
2023-05-31T01:01:35.288Z,37.08
2023-05-31T01:02:35.197Z,37.07
2023-05-31T01:03:35.226Z,37.08
2023-05-31T01:04:35.215Z,37.08
2023-05-31T01:05:35.244Z,37.08
2023-05-31T01:06:35.259Z,37.09
2023-05-31T01:07:35.286Z,37.09
2023-05-31T01:08:35.345Z,37.07
2023-05-31T01:09:35.337Z,37.08
2023-05-31T01:10:35.400Z,37.08
2023-05-31T01:11:35.386Z,37.08
2023-05-31T01:12:35.452Z,37.07
2023-05-31T01:13:35.480Z,37.08
2023-05-31T01:14:35.534Z,37.06
2023-05-31T01:15:35.639Z,37.07
2023-05-31T01:16:35.753Z,37.09
2023-05-31T01:17:35.733Z,37.08
2023-05-31T01:18:35.685Z,37.06
2023-05-31T01:19:35.675Z,37.07
2023-05-31T01:20:35.883Z,37.08
2023-05-31T01:21:35.772Z,37.08
2023-05-31T01:22:35.806Z,37.06
2023-05-31T01:23:37.538Z,37.06
2023-05-31T01:24:35.899Z,37.06
2023-05-31T01:25:36.006Z,37.05
2023-05-31T01:26:35.991Z,37.06
2023-05-31T01:27:36.050Z,37.08
2023-05-31T01:28:36.021Z,37.08
2023-05-31T01:29:36.087Z,37.06
2023-05-31T01:30:36.122Z,37.08
2023-05-31T01:31:36.288Z,37.06
2023-05-31T01:32:36.237Z,37.04
2023-05-31T01:33:36.207Z,37.06
2023-05-31T01:34:36.234Z,37.06
2023-05-31T01:35:36.301Z,37.05
2023-05-31T01:36:36.315Z,37.06
2023-05-31T01:37:36.338Z,37.05
2023-05-31T01:38:36.384Z,37.05
2023-05-31T01:39:36.387Z,37.08
2023-05-31T01:40:36.454Z,37.05
2023-05-31T01:41:36.446Z,37.04
2023-05-31T01:42:36.523Z,37.06
2023-05-31T01:43:36.542Z,37.05
2023-05-31T01:44:36.577Z,37.05
2023-05-31T01:45:36.660Z,37.05
2023-05-31T01:46:36.666Z,37.08
2023-05-31T01:47:36.696Z,37.04
2023-05-31T01:48:36.750Z,37.06
2023-05-31T01:49:36.744Z,37.04
2023-05-31T01:50:36.816Z,37.05
2023-05-31T01:51:36.831Z,37.05
2023-05-31T01:52:36.852Z,37.05
2023-05-31T01:53:36.897Z,37.04
2023-05-31T01:54:36.923Z,37.06
2023-05-31T01:55:36.929Z,37.06
2023-05-31T01:56:36.965Z,37.03
2023-05-31T01:57:36.999Z,37.06
2023-05-31T01:58:37.054Z,37.05
2023-05-31T01:59:37.112Z,37.04
2023-05-31T02:00:37.147Z,37.04
2023-05-31T02:01:37.267Z,37.02
2023-05-31T02:02:37.239Z,37.03
2023-05-31T02:03:37.251Z,37.05
2023-05-31T02:04:37.269Z,37.03
2023-05-31T02:05:37.308Z,37.04
2023-05-31T02:06:37.356Z,37.03
2023-05-31T02:07:37.396Z,37.04
2023-05-31T02:08:37.383Z,37.03
2023-05-31T02:09:37.445Z,37.02
2023-05-31T02:10:37.474Z,37.04
2023-05-31T02:11:37.514Z,37.01
2023-05-31T02:12:37.611Z,37.03
2023-05-31T02:13:37.618Z,37.05
2023-05-31T02:14:37.663Z,37.03
2023-05-31T02:15:37.691Z,37.04
2023-05-31T02:16:37.749Z,37.01
2023-05-31T02:17:37.749Z,37.01
2023-05-31T02:18:37.795Z,37.01
2023-05-31T02:19:37.831Z,37.02
2023-05-31T02:20:37.878Z,37.05
2023-05-31T02:21:37.907Z,37.02
2023-05-31T02:22:37.947Z,37.03
2023-05-31T02:23:37.989Z,37.05
2023-05-31T02:24:38.022Z,37.02
2023-05-31T02:25:38.049Z,37.00
2023-05-31T02:26:38.126Z,37.02
2023-05-31T02:27:38.109Z,37.00
2023-05-31T02:28:38.159Z,37.03
2023-05-31T02:29:38.194Z,37.00
2023-05-31T02:30:38.238Z,37.01
2023-05-31T02:31:38.390Z,37.03
2023-05-31T02:32:38.462Z,37.00
2023-05-31T02:33:38.380Z,37.02
2023-05-31T02:34:38.425Z,37.04
2023-05-31T02:35:38.453Z,37.03
2023-05-31T02:36:38.461Z,37.01
2023-05-31T02:37:38.531Z,36.99
2023-05-31T02:38:38.619Z,37.01
2023-05-31T02:39:38.585Z,37.01
2023-05-31T02:40:38.671Z,37.02
2023-05-31T02:41:38.696Z,37.01
2023-05-31T02:42:38.739Z,36.99
2023-05-31T02:43:38.803Z,37.01
2023-05-31T02:44:38.868Z,36.99
2023-05-31T02:45:38.865Z,36.99
2023-05-31T02:46:38.958Z,37.00
2023-05-31T02:47:39.030Z,37.00
2023-05-31T02:48:39.029Z,37.00
2023-05-31T02:49:39.056Z,36.99
2023-05-31T02:50:39.091Z,37.02
2023-05-31T02:51:39.189Z,36.99
2023-05-31T02:52:39.201Z,37.00
2023-05-31T02:53:39.226Z,36.98
2023-05-31T02:54:39.305Z,36.99
2023-05-31T02:55:39.317Z,36.99
2023-05-31T02:56:39.347Z,36.98
2023-05-31T02:57:39.407Z,37.00
2023-05-31T02:58:39.440Z,36.99
2023-05-31T02:59:39.487Z,36.98
2023-05-31T03:00:39.574Z,36.96
2023-05-31T03:01:39.633Z,36.98
2023-05-31T03:02:39.786Z,36.99
2023-05-31T03:03:39.706Z,36.99
2023-05-31T03:04:39.713Z,36.98
2023-05-31T03:05:39.789Z,36.98
2023-05-31T03:06:39.791Z,36.97
2023-05-31T03:07:39.848Z,36.97
2023-05-31T03:08:39.890Z,36.99
2023-05-31T03:09:39.924Z,36.96
2023-05-31T03:10:39.964Z,36.96
2023-05-31T03:11:40.017Z,36.98
2023-05-31T03:12:40.087Z,36.98
2023-05-31T03:13:40.124Z,36.98
2023-05-31T03:14:40.193Z,36.97
2023-05-31T03:15:40.218Z,36.97
2023-05-31T03:16:40.322Z,36.98
2023-05-31T03:17:40.328Z,36.98
2023-05-31T03:18:40.367Z,36.98
2023-05-31T03:19:40.401Z,36.95
2023-05-31T03:20:40.540Z,36.95
2023-05-31T03:21:40.525Z,36.96
2023-05-31T03:22:40.543Z,36.97
2023-05-31T03:23:40.577Z,36.94
2023-05-31T03:24:40.621Z,36.96
2023-05-31T03:25:40.653Z,36.97
2023-05-31T03:26:40.711Z,36.97
2023-05-31T03:27:40.748Z,36.94
2023-05-31T03:28:40.807Z,36.97
2023-05-31T03:29:40.867Z,36.96
2023-05-31T03:30:40.877Z,36.95
2023-05-31T03:31:40.973Z,36.96
2023-05-31T03:32:41.022Z,36.94
2023-05-31T03:33:41.000Z,36.96
2023-05-31T03:34:41.052Z,36.94
2023-05-31T03:35:41.075Z,36.94
2023-05-31T03:36:41.120Z,36.94
2023-05-31T03:37:41.170Z,36.94
2023-05-31T03:38:41.223Z,36.95
2023-05-31T03:39:41.291Z,36.94
2023-05-31T03:40:41.316Z,36.96
2023-05-31T03:41:41.389Z,36.94
2023-05-31T03:42:41.503Z,36.97
2023-05-31T03:43:41.510Z,36.95
2023-05-31T03:44:41.561Z,36.95
2023-05-31T03:45:41.621Z,36.95
2023-05-31T03:46:41.654Z,36.94
2023-05-31T03:47:41.841Z,36.93
2023-05-31T03:48:41.721Z,36.92
2023-05-31T03:49:41.796Z,36.93
2023-05-31T03:50:41.857Z,36.92
2023-05-31T03:51:41.865Z,36.93
2023-05-31T03:52:41.924Z,36.92
2023-05-31T03:53:41.988Z,36.93
2023-05-31T03:54:42.018Z,36.91
2023-05-31T03:55:42.035Z,36.92
2023-05-31T03:56:42.104Z,36.94
2023-05-31T03:57:42.149Z,36.92
2023-05-31T03:58:42.190Z,36.92
2023-05-31T03:59:42.230Z,36.91
2023-05-31T04:00:42.282Z,36.91
2023-05-31T04:01:42.362Z,36.93
2023-05-31T04:02:52.055Z,36.93
2023-05-31T04:03:43.480Z,36.93
2023-05-31T04:04:42.500Z,36.93
2023-05-31T04:05:42.378Z,36.91
2023-05-31T04:06:42.353Z,36.92
2023-05-31T04:07:42.327Z,36.92
2023-05-31T04:08:42.345Z,36.91
2023-05-31T04:09:42.328Z,36.91
2023-05-31T04:10:42.315Z,36.91
2023-05-31T04:11:42.342Z,36.92
2023-05-31T04:12:42.305Z,36.90
2023-05-31T04:13:42.336Z,36.91
2023-05-31T04:14:42.384Z,36.91
2023-05-31T04:15:42.455Z,36.90
2023-05-31T04:16:42.497Z,36.91
2023-05-31T04:17:42.492Z,36.89
2023-05-31T04:18:42.551Z,36.91
2023-05-31T04:19:42.578Z,36.92
2023-05-31T04:20:42.686Z,36.91
2023-05-31T04:21:42.661Z,36.91
2023-05-31T04:22:42.701Z,36.91
2023-05-31T04:23:42.745Z,36.89
2023-05-31T04:24:42.792Z,36.89
2023-05-31T04:25:42.846Z,36.89
2023-05-31T04:26:42.879Z,36.88
2023-05-31T04:27:42.904Z,36.89
2023-05-31T04:28:43.000Z,36.88
2023-05-31T04:29:43.043Z,36.89
2023-05-31T04:30:43.161Z,36.88
2023-05-31T04:32:44.144Z,36.92
2023-05-31T04:33:43.114Z,36.88
2023-05-31T04:34:43.091Z,36.87
2023-05-31T04:35:43.104Z,36.87
2023-05-31T04:36:43.068Z,36.87
2023-05-31T04:37:43.082Z,36.85
2023-05-31T04:38:43.046Z,36.88
2023-05-31T04:39:43.060Z,36.86
2023-05-31T04:40:43.022Z,36.85
2023-05-31T04:41:43.034Z,36.87
2023-05-31T04:42:43.088Z,36.87
2023-05-31T04:43:43.020Z,36.86
2023-05-31T04:44:43.099Z,36.84
2023-05-31T04:45:43.160Z,36.84
2023-05-31T04:46:43.177Z,36.84
2023-05-31T04:47:43.278Z,36.84
2023-05-31T04:48:43.274Z,36.84
2023-05-31T04:50:43.373Z,36.81
2023-05-31T04:51:43.448Z,36.85
2023-05-31T04:52:43.447Z,36.91
2023-05-31T04:53:43.461Z,36.90
2023-05-31T04:54:43.533Z,36.90
2023-05-31T04:55:43.546Z,36.94
2023-05-31T04:56:43.637Z,37.50
2023-05-31T04:57:43.666Z,37.73
2023-05-31T04:58:43.694Z,38.36
2023-05-31T04:59:43.756Z,38.77
2023-05-31T05:00:43.787Z,38.55
2023-05-31T05:01:44.095Z,39.33
2023-05-31T05:02:43.966Z,38.76
2023-05-31T05:03:44.034Z,39.47
2023-05-31T05:04:43.998Z,40.41
2023-05-31T05:05:44.049Z,41.32
2023-05-31T05:06:44.075Z,41.22
2023-05-31T05:07:44.145Z,41.52
2023-05-31T05:08:44.177Z,41.38
2023-05-31T05:09:44.223Z,41.93
2023-05-31T05:10:44.293Z,42.10
2023-05-31T05:11:44.376Z,42.04
2023-05-31T05:12:44.353Z,43.86
2023-05-31T05:13:44.418Z,43.02
2023-05-31T05:14:44.503Z,42.77
2023-05-31T05:15:44.539Z,43.48
2023-05-31T05:16:44.680Z,43.73
2023-05-31T05:17:44.656Z,43.59
2023-05-31T05:18:44.692Z,43.86
2023-05-31T05:19:44.747Z,44.20
2023-05-31T05:20:44.852Z,44.40
2023-05-31T05:21:44.858Z,44.34
2023-05-31T05:22:44.900Z,44.01
2023-05-31T05:23:44.978Z,44.19
2023-05-31T05:24:44.994Z,43.82
2023-05-31T05:25:45.086Z,43.95
2023-05-31T05:26:45.113Z,43.75
2023-05-31T05:27:45.171Z,43.74
2023-05-31T05:28:45.238Z,43.69
2023-05-31T05:29:45.288Z,43.41
2023-05-31T05:30:45.393Z,43.45
2023-05-31T05:31:45.441Z,43.33
2023-05-31T05:32:45.504Z,43.19
2023-05-31T05:33:45.570Z,43.15
2023-05-31T05:34:45.618Z,42.89
2023-05-31T05:35:45.642Z,42.87
2023-05-31T05:36:45.717Z,42.77
2023-05-31T05:37:45.781Z,42.63
2023-05-31T05:38:45.843Z,42.59
2023-05-31T05:39:46.604Z,42.48
2023-05-31T05:40:46.236Z,42.37
2023-05-31T05:41:46.674Z,42.21
2023-05-31T05:42:46.172Z,42.03
2023-05-31T05:43:46.310Z,41.92
2023-05-31T05:44:46.117Z,41.88
2023-05-31T05:45:46.199Z,41.81
2023-05-31T05:46:46.590Z,41.66
2023-05-31T05:47:46.524Z,41.54
2023-05-31T05:48:46.402Z,41.35
2023-05-31T05:49:46.420Z,41.27
2023-05-31T05:50:46.468Z,41.09
2023-05-31T05:51:46.537Z,41.08
2023-05-31T05:52:46.585Z,41.04
2023-05-31T05:53:46.662Z,41.04
2023-05-31T05:54:46.677Z,41.01
2023-05-31T05:55:46.756Z,40.95
2023-05-31T05:56:46.871Z,40.89
2023-05-31T05:57:46.854Z,40.89
2023-05-31T05:58:46.929Z,40.68
2023-05-31T05:59:46.941Z,40.66
2023-05-31T06:00:47.056Z,40.68
2023-05-31T06:01:47.107Z,40.69
2023-05-31T06:02:47.231Z,40.69
2023-05-31T06:03:47.232Z,40.70
2023-05-31T06:04:47.215Z,40.74
2023-05-31T06:05:47.279Z,40.71
2023-05-31T06:06:47.288Z,40.80
2023-05-31T06:07:47.337Z,40.96
2023-05-31T06:08:47.370Z,40.96
2023-05-31T06:09:47.421Z,40.92
2023-05-31T06:10:47.439Z,40.92
2023-05-31T06:11:47.467Z,41.22
2023-05-31T06:12:47.496Z,41.35
2023-05-31T06:13:47.516Z,41.13
2023-05-31T06:14:47.558Z,41.33
2023-05-31T06:15:47.554Z,41.33
2023-05-31T06:16:47.643Z,41.22
2023-05-31T06:17:47.589Z,41.32
2023-05-31T06:18:47.593Z,41.34
2023-05-31T06:19:47.634Z,41.21
2023-05-31T06:20:47.688Z,41.25
2023-05-31T06:21:48.123Z,41.35
2023-05-31T06:22:48.680Z,41.39
2023-05-31T06:23:47.632Z,41.28
2023-05-31T06:24:47.668Z,41.11
2023-05-31T06:25:47.658Z,41.16
2023-05-31T06:26:47.688Z,41.19
2023-05-31T06:27:47.657Z,41.13
2023-05-31T06:28:47.707Z,41.07
2023-05-31T06:29:47.674Z,41.10
2023-05-31T06:30:47.726Z,41.05
2023-05-31T06:31:47.766Z,41.10
2023-05-31T06:32:47.729Z,41.18
2023-05-31T06:33:47.750Z,41.11
2023-05-31T06:34:47.715Z,41.13
2023-05-31T06:35:47.704Z,41.47
2023-05-31T06:36:47.721Z,41.25
2023-05-31T06:37:47.714Z,41.24
2023-05-31T06:38:47.730Z,41.16
2023-05-31T06:39:47.792Z,41.29
2023-05-31T06:40:47.714Z,41.30
2023-05-31T06:41:47.733Z,41.12
2023-05-31T06:42:47.700Z,41.15
2023-05-31T06:43:47.721Z,41.16
2023-05-31T06:44:56.205Z,41.11
2023-05-31T06:45:48.712Z,41.18
2023-05-31T06:46:47.693Z,41.16
2023-05-31T06:47:47.726Z,41.10
2023-05-31T06:48:49.218Z,41.18
2023-05-31T06:49:48.691Z,41.15
2023-05-31T06:50:47.670Z,41.19
2023-05-31T06:51:47.642Z,41.31
2023-05-31T06:52:47.691Z,41.16
2023-05-31T06:53:47.642Z,40.99
2023-05-31T06:54:47.625Z,40.94
2023-05-31T06:55:47.644Z,40.90
2023-05-31T06:56:47.622Z,40.82
2023-05-31T06:57:47.619Z,40.73
2023-05-31T06:58:47.584Z,40.59
2023-05-31T06:59:47.569Z,40.62
2023-05-31T07:00:47.869Z,40.66
2023-05-31T07:01:47.648Z,40.68
2023-05-31T07:02:47.623Z,40.65
2023-05-31T07:03:47.659Z,40.67
2023-05-31T07:04:47.557Z,40.66
2023-05-31T07:05:47.548Z,40.67
2023-05-31T07:06:47.551Z,40.67
2023-05-31T07:07:47.546Z,40.69
2023-05-31T07:08:47.531Z,40.70
2023-05-31T07:09:47.538Z,40.67
2023-05-31T07:10:47.543Z,40.65
2023-05-31T07:11:47.608Z,40.66
2023-05-31T07:12:47.524Z,40.64
2023-05-31T07:13:47.513Z,40.62
2023-05-31T07:14:47.535Z,40.61
2023-05-31T07:15:47.630Z,40.61
2023-05-31T07:16:47.643Z,40.65
2023-05-31T07:17:47.713Z,40.70
2023-05-31T07:18:47.700Z,40.63
2023-05-31T07:19:47.733Z,40.64
2023-05-31T07:20:47.871Z,40.84
2023-05-31T07:21:48.125Z,40.70
2023-05-31T07:22:47.904Z,40.64
2023-05-31T07:23:47.918Z,40.65
2023-05-31T07:24:48.020Z,40.63
2023-05-31T07:25:48.051Z,40.63
2023-05-31T07:26:48.123Z,40.62
2023-05-31T07:27:48.174Z,40.61
2023-05-31T07:28:48.244Z,40.64
2023-05-31T07:29:48.257Z,40.48
2023-05-31T07:30:48.275Z,40.40
2023-05-31T07:31:48.264Z,40.42
2023-05-31T07:32:48.372Z,40.43
2023-05-31T07:33:48.304Z,40.43
2023-05-31T07:35:02.744Z,40.43
2023-05-31T07:35:57.634Z,40.47
2023-05-31T07:36:49.275Z,40.50
2023-05-31T07:37:48.317Z,40.49
2023-05-31T07:38:48.285Z,40.49
2023-05-31T07:39:48.284Z,40.49
2023-05-31T07:40:48.258Z,40.49
2023-05-31T07:41:48.696Z,40.48
2023-05-31T07:42:48.243Z,40.48
2023-05-31T07:43:48.252Z,40.50
2023-05-31T07:44:48.226Z,40.49
2023-05-31T07:45:48.263Z,40.48
2023-05-31T07:46:48.207Z,40.48
2023-05-31T07:47:48.253Z,40.45
2023-05-31T07:48:48.922Z,40.39
2023-05-31T07:49:48.190Z,40.23
2023-05-31T07:50:48.166Z,40.28
2023-05-31T07:51:48.656Z,40.46
2023-05-31T07:52:48.220Z,40.36
2023-05-31T07:53:48.190Z,40.43
2023-05-31T07:54:48.181Z,40.46
2023-05-31T07:55:49.254Z,40.53
2023-05-31T07:56:48.161Z,40.52
2023-05-31T07:57:48.162Z,40.50
2023-05-31T07:58:48.122Z,40.79
2023-05-31T07:59:48.169Z,40.63
2023-05-31T08:00:48.172Z,40.68
2023-05-31T08:01:48.184Z,40.89
2023-05-31T08:02:48.231Z,40.88
2023-05-31T08:03:48.177Z,40.83
2023-05-31T08:04:48.214Z,40.86
2023-05-31T08:05:49.309Z,40.88
2023-05-31T08:06:48.363Z,40.96
2023-05-31T08:07:48.388Z,40.88
2023-05-31T08:08:48.609Z,40.79
2023-05-31T08:09:48.561Z,40.83
2023-05-31T08:10:48.603Z,40.82
2023-05-31T08:11:48.652Z,40.78
2023-05-31T08:12:48.660Z,40.78
2023-05-31T08:13:48.729Z,40.99
2023-05-31T08:14:48.778Z,40.87
2023-05-31T08:15:48.857Z,40.81
2023-05-31T08:16:49.214Z,40.88
2023-05-31T08:17:49.081Z,40.85
2023-05-31T08:18:49.023Z,40.88
2023-05-31T08:19:49.084Z,40.93
2023-05-31T08:20:49.182Z,40.92
2023-05-31T08:21:49.165Z,40.99
2023-05-31T08:22:49.218Z,41.03
2023-05-31T08:23:49.257Z,40.88
2023-05-31T08:24:49.296Z,40.94
2023-05-31T08:25:49.358Z,40.99
2023-05-31T08:26:49.660Z,40.95
2023-05-31T08:27:49.430Z,41.07
2023-05-31T08:28:49.429Z,41.04
2023-05-31T08:29:49.479Z,41.09
2023-05-31T08:30:49.741Z,41.02
2023-05-31T08:31:49.680Z,41.00
2023-05-31T08:32:49.583Z,40.97
2023-05-31T08:33:49.586Z,41.01
2023-05-31T08:34:49.649Z,40.97
2023-05-31T08:35:49.650Z,40.81
2023-05-31T08:36:49.685Z,40.83
2023-05-31T08:37:49.707Z,40.91
2023-05-31T08:38:49.770Z,40.85
2023-05-31T08:39:49.762Z,41.01
2023-05-31T08:40:49.796Z,40.95
2023-05-31T08:41:50.157Z,41.08
2023-05-31T08:42:49.806Z,41.17
2023-05-31T08:43:49.805Z,41.06
2023-05-31T08:44:49.850Z,40.69
2023-05-31T08:45:49.868Z,40.60
2023-05-31T08:46:49.927Z,40.56
2023-05-31T08:47:49.919Z,40.51
2023-05-31T08:48:49.898Z,40.25
2023-05-31T08:49:49.927Z,40.06
2023-05-31T08:50:51.865Z,40.02
2023-05-31T08:51:50.179Z,39.60
2023-05-31T08:52:49.976Z,39.53
2023-05-31T08:53:49.959Z,39.31
2023-05-31T08:54:49.993Z,39.31
2023-05-31T08:55:49.931Z,39.07
2023-05-31T08:56:50.178Z,39.03
2023-05-31T08:57:49.935Z,38.74
2023-05-31T08:58:49.914Z,38.59
2023-05-31T08:59:49.928Z,38.65
2023-05-31T09:00:49.898Z,38.43
2023-05-31T09:01:49.953Z,38.22
2023-05-31T09:02:49.912Z,38.21
2023-05-31T09:03:49.911Z,38.21
2023-05-31T09:04:49.896Z,38.02
2023-05-31T09:05:49.824Z,37.98
2023-05-31T09:06:49.866Z,37.73
2023-05-31T09:07:49.876Z,38.06
2023-05-31T09:08:49.896Z,37.75
2023-05-31T09:09:49.839Z,37.71
2023-05-31T09:10:49.792Z,37.59
2023-05-31T09:11:49.820Z,37.77
2023-05-31T09:12:49.812Z,37.33
2023-05-31T09:13:49.770Z,37.48
2023-05-31T09:14:49.833Z,37.46
2023-05-31T09:15:49.771Z,37.19
2023-05-31T09:16:49.834Z,37.30
2023-05-31T09:17:49.777Z,37.04
2023-05-31T09:18:49.748Z,37.16
2023-05-31T09:19:49.764Z,36.99
2023-05-31T09:20:49.806Z,37.12
2023-05-31T09:21:49.737Z,37.07
2023-05-31T09:22:49.727Z,37.04
2023-05-31T09:23:49.711Z,36.97
2023-05-31T09:24:49.695Z,36.96
2023-05-31T09:25:49.713Z,36.98
2023-05-31T09:26:49.696Z,36.96
2023-05-31T09:27:49.678Z,37.12
2023-05-31T09:28:49.680Z,36.92
2023-05-31T09:29:49.669Z,37.06
2023-05-31T09:30:49.670Z,37.10
2023-05-31T09:31:49.746Z,37.02
2023-05-31T09:32:49.666Z,36.83
2023-05-31T09:33:49.681Z,36.89
2023-05-31T09:34:49.670Z,36.79
2023-05-31T09:35:49.674Z,37.10
2023-05-31T09:36:49.705Z,36.99
2023-05-31T09:37:49.600Z,36.90
2023-05-31T09:38:49.674Z,36.89
2023-05-31T09:39:49.596Z,36.91
2023-05-31T09:40:49.600Z,36.73
2023-05-31T09:41:49.708Z,36.77
2023-05-31T09:42:49.575Z,36.86
2023-05-31T09:43:49.569Z,36.95
2023-05-31T09:44:50.165Z,36.91
2023-05-31T09:45:49.574Z,36.86
2023-05-31T09:46:49.769Z,36.90
2023-05-31T09:47:49.605Z,37.08
2023-05-31T09:48:49.554Z,36.99
2023-05-31T09:49:49.527Z,37.09
2023-05-31T09:50:49.497Z,37.11
2023-05-31T09:51:49.776Z,37.14
2023-05-31T09:52:49.510Z,37.09
2023-05-31T09:53:49.471Z,37.09
2023-05-31T09:54:49.494Z,37.12
2023-05-31T09:55:49.521Z,37.00
2023-05-31T09:56:49.476Z,37.01
2023-05-31T09:57:49.465Z,36.92
2023-05-31T09:58:49.452Z,36.96
2023-05-31T09:59:49.464Z,37.05
2023-05-31T10:00:49.431Z,36.98
2023-05-31T10:01:49.789Z,36.87
2023-05-31T10:02:49.555Z,37.00
2023-05-31T10:03:49.430Z,36.99
2023-05-31T10:04:49.424Z,36.80
2023-05-31T10:05:49.392Z,36.87
2023-05-31T10:06:49.729Z,36.76
2023-05-31T10:07:49.584Z,36.86
2023-05-31T10:08:49.408Z,36.81
2023-05-31T10:09:49.363Z,36.83
2023-05-31T10:10:49.384Z,36.83
2023-05-31T10:11:49.744Z,36.70
2023-05-31T10:12:49.383Z,36.64
2023-05-31T10:13:49.347Z,36.65
2023-05-31T10:14:49.383Z,36.67
2023-05-31T10:15:49.357Z,36.65
2023-05-31T10:16:49.792Z,36.59
2023-05-31T10:17:49.342Z,36.57
2023-05-31T10:18:49.307Z,36.62
2023-05-31T10:19:49.310Z,36.63
2023-05-31T10:20:49.381Z,36.65
2023-05-31T10:21:49.315Z,36.66
2023-05-31T10:22:49.294Z,36.61
2023-05-31T10:23:49.269Z,36.62
2023-05-31T10:24:49.660Z,36.55
2023-05-31T10:25:50.238Z,36.49
2023-05-31T10:26:49.246Z,36.53
2023-05-31T10:27:49.260Z,36.55
2023-05-31T10:28:49.273Z,36.61
2023-05-31T10:29:49.263Z,36.50
2023-05-31T10:30:49.317Z,36.50
2023-05-31T10:31:49.756Z,36.46
2023-05-31T10:32:49.258Z,36.36
2023-05-31T10:33:49.194Z,36.43
2023-05-31T10:34:49.234Z,36.38
2023-05-31T10:35:49.916Z,36.34
2023-05-31T10:36:49.230Z,36.29
2023-05-31T10:37:49.190Z,36.19
2023-05-31T10:38:49.206Z,36.43
2023-05-31T10:39:49.164Z,36.29
2023-05-31T10:40:49.145Z,36.07
2023-05-31T10:41:49.145Z,36.09
2023-05-31T10:42:49.124Z,36.37
2023-05-31T10:43:49.160Z,35.71
2023-05-31T10:44:49.140Z,36.12
2023-05-31T10:45:49.149Z,36.12
2023-05-31T10:46:49.315Z,36.09
2023-05-31T10:47:49.097Z,36.34
2023-05-31T10:48:49.105Z,35.92
2023-05-31T10:49:49.087Z,36.26
2023-05-31T10:50:49.089Z,36.59
2023-05-31T10:51:49.084Z,36.74
2023-05-31T10:52:49.231Z,36.89
2023-05-31T10:53:49.136Z,36.95
2023-05-31T10:54:49.152Z,36.09
2023-05-31T10:55:49.254Z,36.58
2023-05-31T10:56:49.335Z,36.85
2023-05-31T10:57:49.749Z,36.31
2023-05-31T10:58:49.442Z,36.67
2023-05-31T10:59:49.493Z,36.83
2023-05-31T11:00:49.554Z,36.95
2023-05-31T11:01:49.570Z,37.11
2023-05-31T11:02:49.872Z,37.11
2023-05-31T11:03:49.747Z,37.25
2023-05-31T11:04:49.728Z,37.22
2023-05-31T11:05:49.760Z,37.32
2023-05-31T11:06:49.822Z,37.41
2023-05-31T11:07:50.302Z,37.47
2023-05-31T11:08:49.858Z,37.57
2023-05-31T11:09:49.894Z,37.40
2023-05-31T11:10:49.943Z,37.55
2023-05-31T11:11:49.961Z,37.69
2023-05-31T11:12:50.278Z,37.67
2023-05-31T11:13:50.019Z,37.74
2023-05-31T11:14:50.032Z,37.79
2023-05-31T11:15:50.098Z,37.79
2023-05-31T11:16:50.181Z,37.90
2023-05-31T11:17:50.252Z,37.89
2023-05-31T11:18:50.094Z,37.70
2023-05-31T11:19:50.108Z,37.87
2023-05-31T11:20:50.245Z,37.85
2023-05-31T11:21:50.128Z,37.50
2023-05-31T11:22:50.221Z,37.62
2023-05-31T11:23:50.128Z,37.83
2023-05-31T11:24:50.136Z,37.89
2023-05-31T11:25:50.164Z,37.97
2023-05-31T11:26:50.180Z,37.99
2023-05-31T11:27:50.157Z,37.82
2023-05-31T11:28:50.145Z,37.58
2023-05-31T11:29:50.142Z,37.57
2023-05-31T11:30:50.151Z,37.69
2023-05-31T11:31:50.193Z,37.67
2023-05-31T11:32:50.283Z,37.64
2023-05-31T11:33:58.035Z,37.78
2023-05-31T11:34:51.187Z,37.88
2023-05-31T11:35:50.198Z,38.11
2023-05-31T11:36:50.141Z,38.12
2023-05-31T11:37:50.283Z,37.95
2023-05-31T11:38:50.147Z,37.87
2023-05-31T11:39:50.178Z,37.83
2023-05-31T11:40:50.160Z,37.75
2023-05-31T11:41:50.095Z,37.69
2023-05-31T11:42:50.269Z,37.63
2023-05-31T11:43:50.128Z,37.57
2023-05-31T11:44:50.049Z,37.41
2023-05-31T11:45:50.057Z,37.21
2023-05-31T11:46:50.091Z,37.02
2023-05-31T11:47:50.371Z,37.01
2023-05-31T11:48:50.053Z,36.73
2023-05-31T11:49:50.057Z,36.84
2023-05-31T11:50:50.036Z,36.61
2023-05-31T11:51:50.029Z,36.45
2023-05-31T11:52:50.238Z,36.36
2023-05-31T11:53:50.014Z,35.85
2023-05-31T11:54:50.379Z,35.77
2023-05-31T11:55:50.005Z,35.85
2023-05-31T11:56:49.987Z,35.91
2023-05-31T11:57:50.235Z,35.83
2023-05-31T11:58:49.981Z,35.49
2023-05-31T11:59:49.974Z,35.26
2023-05-31T12:00:49.954Z,35.68
2023-05-31T12:01:49.971Z,35.46
2023-05-31T12:02:50.109Z,35.12
2023-05-31T12:03:50.125Z,35.04
2023-05-31T12:04:50.208Z,35.13
2023-05-31T12:05:50.100Z,35.13
2023-05-31T12:06:50.146Z,35.27
2023-05-31T12:07:50.296Z,35.36
2023-05-31T12:08:50.217Z,34.76
2023-05-31T12:09:50.270Z,35.08
2023-05-31T12:10:50.268Z,34.36
2023-05-31T12:11:50.319Z,35.15
2023-05-31T12:12:50.770Z,35.08
2023-05-31T12:13:50.417Z,35.11
2023-05-31T12:14:50.444Z,35.09
2023-05-31T12:15:50.500Z,35.12
2023-05-31T12:16:50.507Z,34.80
2023-05-31T12:17:50.988Z,35.06
2023-05-31T12:18:50.545Z,34.89
2023-05-31T12:19:50.615Z,34.81
2023-05-31T12:20:50.858Z,35.04
2023-05-31T12:21:50.712Z,34.63
2023-05-31T12:22:50.737Z,34.73
2023-05-31T12:23:50.777Z,34.93
2023-05-31T12:24:50.808Z,34.75
2023-05-31T12:25:50.918Z,34.35
2023-05-31T12:26:50.904Z,34.78
2023-05-31T12:27:50.941Z,34.79
2023-05-31T12:28:50.976Z,34.34
2023-05-31T12:29:51.023Z,34.73
2023-05-31T12:30:51.045Z,34.72
2023-05-31T12:31:51.198Z,34.72
2023-05-31T12:32:51.147Z,34.78
2023-05-31T12:33:51.195Z,34.72
2023-05-31T12:34:51.272Z,34.60
2023-05-31T12:35:51.256Z,34.65
2023-05-31T12:36:51.334Z,34.58
2023-05-31T12:37:51.801Z,34.58
2023-05-31T12:38:51.446Z,34.09
2023-05-31T12:39:51.443Z,34.37
2023-05-31T12:40:51.516Z,34.33
2023-05-31T12:41:51.561Z,34.35
2023-05-31T12:42:51.850Z,34.32
2023-05-31T12:43:51.634Z,34.35
2023-05-31T12:44:51.649Z,34.24
2023-05-31T12:45:51.743Z,34.11
2023-05-31T12:46:51.729Z,33.90
2023-05-31T12:47:51.859Z,34.10
2023-05-31T12:48:51.919Z,33.88
2023-05-31T12:49:51.876Z,33.98
2023-05-31T12:50:51.954Z,33.89
2023-05-31T12:51:51.994Z,33.82
2023-05-31T12:52:52.023Z,33.63
2023-05-31T12:53:52.043Z,33.73
2023-05-31T12:54:52.082Z,33.66
2023-05-31T12:55:52.169Z,33.71